• Join FlightAware (Why Join?)
  • Login
  • US Flag 
03:58AM EDT


 

Airport Tracker/Info


-or-


 

Live Flight TrackerFlight Track Log ✈ AAL963 ✈ 30-Sep-2013 ✈ KDFW - SBGR / GRU

Flight Track Log - Related Links

Times and Time Zones

All times are in EDT time to prevent confusion due to time zone crossing. See the AAL963 flight status page for this flight to view local times or setup timezone preferences in your user account.

Time Position Orientation Groundspeed Altitude Reporting Facility
EDT Latitude Longitude Course Direction KTS MPH feet Rate Location/Type
09:44PM 32.8730 -97.0300 179° South 185 213 1,600  Level FlightAware
09:44PM 32.8610 -97.0300 180° South 188 216 2,100 1,680 Climbing FlightAware
09:45PM 32.8380 -97.0300 180° South 217 250 2,700 1,680 Climbing FlightAware
09:45PM 32.8140 -97.0300 180° South 238 274 3,400 2,280 Climbing FlightAware
09:45PM 32.7920 -97.0300 180° South 244 281 4,300 2,640 Climbing FlightAware
09:46PM 32.7540 -97.0300 180° South 248 285 5,900 2,700 Climbing FlightAware
09:46PM 32.7320 -97.0300 180° South 254 292 6,700 2,100 Climbing FlightAware
09:47PM 32.6950 -97.0260 175° South 274 315 7,600 1,740 Climbing FlightAware
09:47PM 32.6730 -97.0140 155° Southeast 287 330 8,200 1,920 Climbing FlightAware
09:47PM 32.6470 -96.9980 153° Southeast 292 336 8,900 1,200 Climbing FlightAware
09:48PM 32.6150 -96.9810 156° South 296 341 9,100 660 Climbing FlightAware
09:48PM 32.5910 -96.9700 159° South 291 335 9,400 1,200 Climbing FlightAware
09:48PM 32.5660 -96.9580 158° South 299 344 9,900 1,320 Climbing FlightAware
09:49PM 32.5250 -96.9370 157° South 312 359 10,500 1,140 Climbing FlightAware
09:50PM 32.4660 -96.9070 157° South 357 411 11,300 1,560 Climbing FlightAware
09:50PM 32.4150 -96.8810 157° South 374 430 12,400 2,220 Climbing FlightAware
09:51PM 32.3560 -96.8510 157° South 382 440 13,900 2,460 Climbing FlightAware
09:51PM 32.3010 -96.8280 161° South 386 444 15,300 2,340 Climbing FlightAware
09:52PM 32.2360 -96.8090 166° South 395 455 16,600 1,980 Climbing FlightAware
09:52PM 32.1710 -96.7910 167° South 405 466 17,700 1,920 Climbing FlightAware
09:53PM 32.0940 -96.7700 167° South 416 479 19,100 1,980 Climbing FlightAware
09:54PM 32.0260 -96.7520 167° South 423 487 20,300 1,860 Climbing FlightAware
09:54PM 31.9570 -96.7340 168° South 431 496 21,400 1,620 Climbing FlightAware
09:55PM 31.8970 -96.7180 167° South 440 506 22,200 1,560 Climbing FlightAware
09:55PM 31.8240 -96.6990 168° South 449 517 23,200 1,740 Climbing FlightAware
09:56PM 31.7480 -96.6790 167° South 452 520 24,400 1,800 Climbing FlightAware
09:57PM 31.6830 -96.6630 168° South 456 525 25,300 1,680 Climbing FlightAware
09:57PM 31.6070 -96.6440 168° South 464 534 26,300 1,620 Climbing FlightAware
09:58PM 31.5300 -96.6250 168° South 468 539 27,300 1,440 Climbing FlightAware
09:58PM 31.4560 -96.6060 168° South 476 548 28,100 1,380 Climbing FlightAware
09:59PM 31.3830 -96.5870 167° South 482 555 28,900 1,440 Climbing FlightAware
09:59PM 31.3300 -96.5640 160° South 483 556 29,500 1,260 Climbing FlightAware
10:00PM 31.2930 -96.5340 145° Southeast 484 557 29,900 1,200 Climbing FlightAware
10:00PM 31.2620 -96.4960 134° Southeast 486 559 30,300 1,140 Climbing FlightAware
10:01PM 31.2180 -96.4160 123° Southeast 491 565 31,000 1,140 Climbing FlightAware
10:01PM 31.1740 -96.3360 123° Southeast 498 573 31,700 840 Climbing FlightAware
10:02PM 31.1300 -96.2650 126° Southeast 501 577 32,000 840 Climbing FlightAware
10:02PM 31.0810 -96.1860 126° Southeast 504 580 32,700 840 Climbing FlightAware
10:03PM 31.0320 -96.1090 127° Southeast 501 577 33,000 240 Climbing FlightAware
10:04PM 30.9830 -96.0310 126° Southeast 502 578 33,000  Level FlightAware
10:04PM 30.9380 -95.9610 127° Southeast 504 580 33,000  Level FlightAware
10:05PM 30.8870 -95.8820 127° Southeast 504 580 33,000  Level FlightAware
10:05PM 30.8430 -95.8120 126° Southeast 506 582 33,000  Level FlightAware
10:06PM 30.7910 -95.7290 126° Southeast 506 582 33,000  Level FlightAware
10:06PM 30.7460 -95.6600 127° Southeast 506 582 33,000  Level FlightAware
10:07PM 30.6920 -95.5750 126° Southeast 508 585 33,000  Level FlightAware
10:08PM 30.6420 -95.4970 127° Southeast 508 585 33,000  Level FlightAware
10:08PM 30.5960 -95.4270 127° Southeast 509 586 33,000  Level FlightAware
10:09PM 30.5460 -95.3480 126° Southeast 511 588 33,000  Level FlightAware
10:09PM 30.4990 -95.2760 127° Southeast 512 589 33,000  Level FlightAware
10:10PM 30.4460 -95.1940 127° Southeast 515 593 33,000  Level FlightAware
10:11PM 30.3940 -95.1140 127° Southeast 517 595 33,000  Level FlightAware
10:11PM 30.3470 -95.0410 127° Southeast 519 597 33,000  Level FlightAware
10:12PM 30.2930 -94.9580 127° Southeast 522 601 33,000  Level FlightAware
10:12PM 30.2400 -94.8770 127° Southeast 522 601 33,000  Level FlightAware
10:13PM 30.1930 -94.8050 127° Southeast 520 598 33,000  Level FlightAware
10:13PM 30.1755 -94.7780 127° Southeast 521 600 33,000  Level FlightAware ADS-B
10:13PM 30.1410 -94.7250 127° Southeast 522 601 33,000  Level FlightAware
10:14PM 30.0890 -94.6470 128° Southeast 522 601 33,000  Level FlightAware
10:15PM 30.0360 -94.5650 127° Southeast 522 601 33,000  Level FlightAware
10:15PM 29.9890 -94.4940 127° Southeast 523 602 33,000  Level FlightAware
10:16PM 29.9380 -94.4170 127° Southeast 525 604 33,000  Level FlightAware
10:16PM 29.8991 -94.3580 127° Southeast 525 604 33,000  Level FlightAware ADS-B
10:18PM 29.7780 -94.1760 128° Southeast 526 605 33,000  Level FlightAware
10:18PM 29.7310 -94.1040 127° Southeast 525 604 33,000  Level FlightAware
10:19PM 29.6870 -94.0380 127° Southeast 525 604 33,000  Level FlightAware
10:19PM 29.6420 -93.9690 127° Southeast 525 604 33,000  Level FlightAware
10:20PM 29.5435 -93.9143 154° Southeast 511 588 33,000  Level FlightAware ADS-B
10:20PM 29.4833 -93.8642 144° Southeast 510 587 33,000  Level FlightAware ADS-B
10:21PM 29.3929 -93.7877 144° Southeast 510 587 33,000  Level FlightAware ADS-B
10:22PM 29.3090 -93.7140 143° Southeast 509 586 33,000  Level FlightAware
10:22PM 29.2565 -93.6715 145° Southeast 512 589 33,000  Level FlightAware ADS-B
10:23PM 29.1930 -93.6150 142° Southeast 509 586 33,000  Level FlightAware
10:24PM 29.1360 -93.5650 143° Southeast 509 586 33,000  Level FlightAware
10:25PM 29.0770 -93.5140 143° Southeast 509 586 33,000  Level FlightAware
10:25PM 29.0190 -93.4650 144° Southeast 509 586 33,000  Level FlightAware
10:26PM 28.9620 -93.4150 142° Southeast 509 586 33,000  Level FlightAware
10:26PM 28.9030 -93.3640 143° Southeast 509 586 33,000  Level FlightAware
10:27PM 28.8270 -93.3000 144° Southeast 509 586 33,000  Level FlightAware
10:28PM 28.7700 -93.2500 142° Southeast 509 586 33,000  Level FlightAware
10:28PM 28.7120 -93.2010 143° Southeast 509 586 33,000  Level FlightAware
10:29PM 28.6550 -93.1510 142° Southeast 509 586 33,000  Level FlightAware
10:30PM 28.5960 -93.1000 143° Southeast 509 586 33,000  Level FlightAware
10:30PM 28.5360 -93.0500 144° Southeast 509 586 33,000  Level FlightAware
10:31PM 28.4790 -93.0000 142° Southeast 509 586 33,000  Level FlightAware
10:32PM 28.2186 -92.7994 142° Southeast 514 592 33,000 -60 Level Houston Center
10:33PM 28.1025 -92.7039 144° Southeast 516 594 32,900 -60 Descending Houston Center
10:34PM 27.9861 -92.6100 145° Southeast 514 592 32,900  Level Houston Center
10:35PM 27.8694 -92.5131 144° Southeast 518 596 33,000  Climbing Houston Center
10:36PM 27.7531 -92.4175 144° Southeast 518 596 33,000  Level Houston Center
10:37PM 27.6364 -92.3244 145° Southeast 515 593 33,000  Level Houston Center
10:38PM 27.5211 -92.2300 144° Southeast 514 592 33,000 -60 Level Houston Center
10:39PM 27.4058 -92.1367 144° Southeast 512 589 32,900  Descending Houston Center
10:40PM 27.3147 -92.0047 128° Southeast 526 605 33,000  Climbing Houston Center
10:41PM 27.2133 -91.8453 126° Southeast 526 605 33,000  Level Houston Center
10:42PM 27.1569 -91.7275 118° Southeast 531 611 33,000 -60 Level Houston Center
10:43PM 27.0792 -91.5672 119° Southeast 532 612 32,900 -60 Descending Houston Center
10:44PM 27.0094 -91.4253 119° Southeast 530 610 32,900  Level Houston Center
10:46PM 26.8044 -91.2912 150° Southeast  Level FlightAware Approximate
10:53PM 25.9927 -90.7747 150° Southeast  Level FlightAware Approximate
10:54PM 25.8765 -90.7017 151° Southeast  Level FlightAware Approximate
10:55PM 25.7602 -90.6289 151° Southeast  Level FlightAware Approximate
10:56PM 25.6439 -90.5562 151° Southeast  Level FlightAware Approximate
10:57PM 25.5276 -90.4837 151° Southeast  Level FlightAware Approximate
10:58PM 25.4112 -90.4113 151° Southeast  Level FlightAware Approximate
10:59PM 25.2948 -90.3391 151° Southeast  Level FlightAware Approximate
11:00PM 25.1783 -90.2670 151° Southeast  Level FlightAware Approximate
11:01PM 25.0618 -90.1950 151° Southeast  Level FlightAware Approximate
11:02PM 24.9453 -90.1231 151° Southeast  Level FlightAware Approximate
11:02PM 24.8250 -90.1250 151° Southeast 33,000  Level FlightAware
11:02PM 24.8250 -90.1250 146° Southeast 33,000  Level FlightAware
11:04PM 24.6417 -89.9696 142° Southeast  Level FlightAware Approximate
11:05PM 24.5358 -89.8802 142° Southeast  Level FlightAware Approximate
11:06PM 24.4327 -89.7962 146° Southeast  Level FlightAware Approximate
11:07PM 24.3211 -89.7145 146° Southeast  Level FlightAware Approximate
11:08PM 24.2096 -89.6330 146° Southeast  Level FlightAware Approximate
11:11PM 23.9904 -89.2234 135° Southeast  Level Estimated
11:12PM 23.6900 -89.1660 142° Southeast 505 581 33,000  Level FlightAware
11:13PM 23.6270 -89.1080 140° Southeast 506 582 33,000  Level FlightAware
11:13PM 23.5690 -89.0550 140° Southeast 507 583 33,000  Level FlightAware
11:14PM 23.4810 -88.9750 140° Southeast 506 582 33,000  Level FlightAware
11:14PM 23.4370 -88.9330 139° Southeast 506 582 33,000  Level FlightAware
11:15PM 23.3730 -88.8750 140° Southeast 505 581 33,000  Level FlightAware
11:16PM 23.2930 -88.8010 140° Southeast 505 581 33,000  Level FlightAware
11:16PM 23.1870 -88.7040 140° Southeast 504 580 33,000  Level FlightAware
11:17PM 23.1670 -88.6850 139° Southeast 504 580 33,000  Level FlightAware
11:18PM 23.1080 -88.6320 140° Southeast 505 581 33,000  Level FlightAware
11:18PM 23.0050 -88.5380 140° Southeast 506 582 33,000  Level FlightAware
11:19PM 22.9500 -88.4880 140° Southeast 506 582 33,000  Level FlightAware
11:19PM 22.8800 -88.4240 140° Southeast 506 582 33,000  Level FlightAware
11:20PM 22.8200 -88.3690 140° Southeast 504 580 33,000  Level FlightAware
11:20PM 22.7480 -88.3040 140° Southeast 504 580 33,000  Level FlightAware
11:21PM 22.6760 -88.2390 140° Southeast 504 580 33,000  Level FlightAware
11:22PM 22.6110 -88.1790 140° Southeast 504 580 33,000  Level FlightAware
11:22PM 22.5430 -88.1190 141° Southeast 504 580 33,000  Level FlightAware
11:23PM 22.4820 -88.0630 140° Southeast 503 579 33,000  Level FlightAware
11:24PM 22.4180 -88.0050 140° Southeast 503 579 33,000  Level FlightAware
11:24PM 22.3430 -87.9380 140° Southeast 504 580 33,000  Level FlightAware
11:25PM 22.2880 -87.8880 140° Southeast 504 580 33,000  Level FlightAware
11:26PM 22.2060 -87.8140 140° Southeast 504 580 33,000  Level FlightAware
11:26PM 22.1250 -87.7420 141° Southeast 505 581 33,000  Level FlightAware
11:27PM 22.0760 -87.6980 140° Southeast 505 581 33,000  Level FlightAware
11:27PM 22.0100 -87.6390 140° Southeast 504 580 33,000  Level FlightAware
11:28PM 21.9500 -87.5850 140° Southeast 504 580 33,000  Level FlightAware
11:29PM 21.8720 -87.5150 140° Southeast 505 581 33,000  Level FlightAware
11:29PM 21.8050 -87.4550 140° Southeast 506 582 33,000  Level FlightAware
11:30PM 21.7360 -87.3940 141° Southeast 506 582 33,000  Level FlightAware
11:30PM 21.6780 -87.3430 141° Southeast 507 583 33,000  Level FlightAware
11:31PM 21.6030 -87.2750 140° Southeast 507 583 33,000  Level FlightAware
11:32PM 21.5480 -87.2270 141° Southeast 507 583 33,000  Level FlightAware
11:32PM 21.4880 -87.1740 141° Southeast 507 583 33,000  Level FlightAware
11:33PM 21.4220 -87.1150 140° Southeast 507 583 33,000  Level FlightAware
11:33PM 21.3470 -87.0490 141° Southeast 507 583 33,000  Level FlightAware
11:34PM 21.2810 -86.9910 141° Southeast 508 585 33,000  Level FlightAware
11:35PM 21.2160 -86.9330 140° Southeast 506 582 33,000  Level FlightAware
11:35PM 21.1490 -86.8750 141° Southeast 505 581 33,000  Level FlightAware
11:36PM 21.0930 -86.8250 140° Southeast 505 581 33,000  Level FlightAware
11:36PM 21.0270 -86.7670 141° Southeast 506 582 33,000  Level FlightAware
11:37PM 20.9590 -86.7080 141° Southeast 507 583 33,000  Level FlightAware
11:37PM 20.9010 -86.6570 141° Southeast 506 582 33,000  Level FlightAware
11:38PM 20.8360 -86.6000 141° Southeast 505 581 33,000  Level FlightAware
11:39PM 20.7780 -86.5490 141° Southeast 505 581 33,000  Level FlightAware
11:39PM 20.7090 -86.4890 141° Southeast 503 579 33,000  Level FlightAware
11:40PM 20.6540 -86.4400 140° Southeast 502 578 33,000  Level FlightAware
11:40PM 20.5870 -86.3820 141° Southeast 502 578 33,000  Level FlightAware
11:41PM 20.5260 -86.3290 141° Southeast 500 575 33,000  Level FlightAware
11:42PM 20.4630 -86.2730 140° Southeast 500 575 33,000  Level FlightAware
11:42PM 20.3790 -86.2010 141° Southeast 501 577 33,000  Level FlightAware
11:43PM 20.3210 -86.1500 140° Southeast 501 577 33,000  Level FlightAware
11:44PM 20.2400 -86.0810 141° Southeast 501 577 33,000  Level FlightAware
11:44PM 20.1810 -86.0290 140° Southeast 500 575 33,000  Level FlightAware
11:45PM 20.1190 -85.9760 141° Southeast 499 574 33,000  Level FlightAware
11:45PM 20.0550 -85.9200 141° Southeast 499 574 33,000  Level FlightAware
11:46PM 19.9950 -85.8670 140° Southeast 498 573 33,000  Level FlightAware
11:46PM 19.9300 -85.8050 138° Southeast 499 574 33,000  Level FlightAware
11:47PM 19.8690 -85.7460 138° Southeast 500 575 33,000  Level FlightAware
11:48PM 19.8150 -85.6920 137° Southeast 499 574 33,000  Level FlightAware
11:48PM 19.7550 -85.6250 134° Southeast 499 574 33,000  Level FlightAware
11:49PM 19.6900 -85.5540 134° Southeast 499 574 33,000  Level FlightAware
11:50PM 19.6190 -85.4780 135° Southeast 499 574 33,000  Level FlightAware
11:50PM 19.5700 -85.4240 134° Southeast 499 574 33,000  Level FlightAware
11:51PM 19.4990 -85.3520 136° Southeast 495 570 33,000  Level FlightAware
11:52PM 19.4460 -85.2940 134° Southeast 495 570 33,000  Level FlightAware
11:52PM 19.3920 -85.2400 137° Southeast 532 612 33,000  Level FlightAware
11:53PM 19.3340 -85.1780 135° Southeast 498 573 33,000  Level FlightAware
11:53PM 19.2850 -85.1250 134° Southeast 499 574 33,000  Level FlightAware
11:54PM 19.2120 -85.0470 135° Southeast 499 574 33,000  Level FlightAware
11:55PM 19.1630 -84.9940 134° Southeast 499 574 33,000  Level FlightAware
11:55PM 19.1120 -84.9380 134° Southeast 499 574 33,000  Level FlightAware
11:56PM 19.0630 -84.8850 134° Southeast 499 574 33,000  Level FlightAware
11:56PM 19.0140 -84.8310 134° Southeast 499 574 33,000  Level FlightAware
11:57PM 18.9650 -84.7770 134° Southeast 499 574 33,000  Level FlightAware
11:58PM 18.9160 -84.7230 134° Southeast 499 574 33,000  Level FlightAware
11:58PM 18.8660 -84.6680 134° Southeast 499 574 33,000  Level FlightAware
11:59PM 18.8170 -84.6140 134° Southeast 499 574 33,000  Level FlightAware
11:59PM 18.7680 -84.5610 134° Southeast 499 574 33,000  Level FlightAware
12:00AM 18.7180 -84.5070 134° Southeast 499 574 33,000  Level FlightAware
12:01AM 18.6690 -84.4530 134° Southeast 499 574 33,000  Level FlightAware
12:01AM 18.6200 -84.4000 134° Southeast 499 574 33,000  Level FlightAware
12:02AM 18.5710 -84.3460 134° Southeast 499 574 33,000  Level FlightAware
12:02AM 18.5220 -84.2930 134° Southeast 499 574 33,000  Level FlightAware
12:03AM 18.4730 -84.2390 134° Southeast 499 574 33,000  Level FlightAware
12:06AM 18.2453 -83.9673 131° Southeast  Level FlightAware Approximate
12:07AM 18.1564 -83.8616 131° Southeast  Level FlightAware Approximate
12:08AM 18.0676 -83.7560 132° Southeast  Level FlightAware Approximate
12:09AM 17.9786 -83.6506 132° Southeast  Level FlightAware Approximate
12:10AM 17.8821 -83.5465 135° Southeast  Level FlightAware Approximate
12:11AM 17.7864 -83.4478 136° Southeast  Level FlightAware Approximate
12:12AM 17.6907 -83.3493 136° Southeast  Level FlightAware Approximate
12:13AM 17.5950 -83.2508 136° Southeast  Level FlightAware Approximate
12:14AM 17.4992 -83.1525 136° Southeast  Level FlightAware Approximate
12:15AM 17.4034 -83.0542 136° Southeast  Level FlightAware Approximate
12:16AM 17.3043 -82.9596 139° Southeast  Level FlightAware Approximate
12:17AM 17.2033 -82.8673 139° Southeast  Level FlightAware Approximate
12:18AM 17.1023 -82.7751 139° Southeast  Level FlightAware Approximate
12:19AM 17.0012 -82.6831 139° Southeast  Level FlightAware Approximate
12:20AM 16.9000 -82.5911 139° Southeast  Level FlightAware Approximate
12:21AM 16.7989 -82.4992 139° Southeast  Level FlightAware Approximate
12:22AM 16.6977 -82.4074 139° Southeast  Level FlightAware Approximate
12:23AM 16.5964 -82.3157 139° Southeast  Level FlightAware Approximate
12:24AM 16.4948 -82.2238 139° Southeast  Level FlightAware Approximate
12:25AM 16.3976 -82.1270 134° Southeast  Level FlightAware Approximate
12:26AM 16.3038 -82.0265 134° Southeast  Level FlightAware Approximate
12:27AM 16.2100 -81.9260 134° Southeast  Level FlightAware Approximate
12:28AM 16.1162 -81.8256 134° Southeast  Level FlightAware Approximate
12:29AM 16.0223 -81.7254 134° Southeast  Level FlightAware Approximate
12:30AM 15.9283 -81.6252 134° Southeast  Level FlightAware Approximate
12:31AM 15.8343 -81.5251 134° Southeast  Level FlightAware Approximate
12:32AM 15.7403 -81.4251 134° Southeast  Level FlightAware Approximate
12:33AM 15.6475 -81.3240 133° Southeast  Level FlightAware Approximate
12:34AM 15.5550 -81.2225 133° Southeast  Level FlightAware Approximate
12:35AM 15.4625 -81.1212 133° Southeast  Level FlightAware Approximate
12:36AM 15.3699 -81.0199 133° Southeast  Level FlightAware Approximate
12:37AM 15.2773 -80.9188 133° Southeast  Level FlightAware Approximate
12:38AM 15.1846 -80.8177 134° Southeast  Level FlightAware Approximate
12:39AM 15.0919 -80.7167 134° Southeast  Level FlightAware Approximate
12:40AM 14.9991 -80.6159 142° Southeast  Level FlightAware Approximate
12:41AM 14.8930 -80.5303 142° Southeast  Level FlightAware Approximate
12:42AM 14.7869 -80.4447 142° Southeast  Level FlightAware Approximate
12:43AM 14.6807 -80.3592 142° Southeast  Level FlightAware Approximate
12:44AM 14.5746 -80.2738 142° Southeast  Level FlightAware Approximate
12:45AM 14.4684 -80.1885 142° Southeast  Level FlightAware Approximate
12:46AM 14.3621 -80.1033 142° Southeast  Level FlightAware Approximate
12:47AM 14.2559 -80.0182 142° Southeast  Level FlightAware Approximate
12:48AM 14.1496 -79.9331 142° Southeast  Level FlightAware Approximate
12:49AM 14.0433 -79.8481 142° Southeast  Level FlightAware Approximate
12:50AM 13.9369 -79.7632 142° Southeast  Level FlightAware Approximate
12:51AM 13.8305 -79.6784 142° Southeast  Level FlightAware Approximate
12:52AM 13.7241 -79.5936 142° Southeast  Level FlightAware Approximate
12:53AM 13.6177 -79.5089 142° Southeast  Level FlightAware Approximate
12:54AM 13.5112 -79.4243 142° Southeast  Level FlightAware Approximate
12:55AM 13.4047 -79.3398 142° Southeast  Level FlightAware Approximate
12:56AM 13.2982 -79.2554 142° Southeast  Level FlightAware Approximate
12:57AM 13.1916 -79.1710 142° Southeast  Level FlightAware Approximate
12:58AM 13.0850 -79.0867 142° Southeast  Level FlightAware Approximate
12:59AM 12.9784 -79.0025 142° Southeast  Level FlightAware Approximate
12:59AM 12.4360 -79.7000 142° Southeast 488 562 33,000  Level FlightAware
12:59AM 12.3940 -79.6380 125° Southeast 488 562 33,000  Level FlightAware
01:00AM 12.3260 -79.5380 125° Southeast 487 560 33,000  Level FlightAware
01:01AM 12.2720 -79.4610 126° Southeast 492 566 33,000  Level FlightAware
01:02AM 12.2190 -79.3800 124° Southeast 487 560 33,000  Level FlightAware
01:02AM 12.1820 -79.3210 123° Southeast 487 560 33,000  Level FlightAware
01:03AM 12.1440 -79.2620 123° Southeast 487 560 33,000  Level FlightAware
01:03AM 12.1060 -79.2030 123° Southeast 487 560 33,000  Level FlightAware
01:04AM 12.0690 -79.1430 122° Southeast 487 560 33,000  Level FlightAware
01:05AM 12.0310 -79.0840 123° Southeast 487 560 33,000  Level FlightAware
01:05AM 11.8900 -79.0410 163° South 33,000  Level FlightAware
01:06AM 11.8030 -78.9430 132° Southeast 485 558 33,000  Level FlightAware
01:07AM 11.7570 -78.8840 129° Southeast 485 558 33,000  Level FlightAware
01:07AM 11.7030 -78.8160 129° Southeast 490 564 33,000  Level FlightAware
01:08AM 11.6600 -78.7590 128° Southeast 491 565 33,000  Level FlightAware
01:08AM 11.6170 -78.7030 128° Southeast 491 565 33,000  Level FlightAware
01:09AM 11.5540 -78.6260 130° Southeast 492 566 33,000  Level FlightAware
01:10AM 11.5110 -78.5700 128° Southeast 492 566 33,000  Level FlightAware
01:10AM 11.4680 -78.5140 128° Southeast 492 566 33,000  Level FlightAware
01:11AM 11.4250 -78.4580 128° Southeast 492 566 33,000  Level FlightAware
01:11AM 11.3820 -78.4020 128° Southeast 492 566 33,000  Level FlightAware
01:12AM 11.3400 -78.3460 127° Southeast 492 566 33,000  Level FlightAware
01:13AM 11.2970 -78.2900 128° Southeast 492 566 33,000  Level FlightAware
01:13AM 11.2030 -78.1450 123° Southeast 486 559 33,000  Level FlightAware
01:14AM 11.1610 -78.0760 122° Southeast 484 557 33,000  Level FlightAware
01:14AM 11.1150 -77.9980 121° Southeast 484 557 33,000  Level FlightAware
01:15AM 11.0790 -77.9380 121° Southeast 485 558 33,000  Level FlightAware
01:16AM 11.0190 -77.8340 120° Southeast 485 558 33,000  Level FlightAware
01:16AM 10.9840 -77.7740 121° Southeast 485 558 33,000  Level FlightAware
01:17AM 10.9320 -77.6890 122° Southeast 486 559 33,000  Level FlightAware
01:18AM 10.8850 -77.6100 121° Southeast 484 557 33,000  Level FlightAware
01:18AM 10.8360 -77.5270 121° Southeast 485 558 33,000  Level FlightAware
01:19AM 10.8010 -77.4670 121° Southeast 486 559 33,000  Level FlightAware
01:20AM 10.7520 -77.3950 125° Southeast 486 559 33,000  Level FlightAware
01:20AM 10.7100 -77.3420 129° Southeast 490 564 33,000  Level FlightAware
01:21AM 10.6600 -77.2770 128° Southeast 492 566 33,000  Level FlightAware
01:22AM 10.5820 -77.1850 131° Southeast 493 567 33,000  Level FlightAware
01:22AM 10.5400 -77.1420 135° Southeast 527 606 33,000  Level FlightAware
01:22AM 10.5240 -77.1250 134° Southeast 493 567 33,000  Level FlightAware
01:23AM 10.4660 -77.0620 133° Southeast 493 567 33,000  Level FlightAware
01:23AM 10.3980 -76.9930 135° Southeast 493 567 33,000  Level FlightAware
01:24AM 10.3500 -76.9470 137° Southeast 492 566 33,000  Level FlightAware
01:25AM 10.2890 -76.8860 135° Southeast 492 566 33,000  Level FlightAware
01:25AM 10.2380 -76.8360 136° Southeast 493 567 33,000  Level FlightAware
01:26AM 10.1770 -76.7750 135° Southeast 493 567 33,000  Level FlightAware
01:26AM 10.1200 -76.7200 136° Southeast 492 566 33,000  Level FlightAware
01:27AM 10.0660 -76.6660 135° Southeast 491 565 33,000  Level FlightAware
01:27AM 10.0090 -76.6110 136° Southeast 492 566 33,000  Level FlightAware
01:28AM 9.9510 -76.5530 135° Southeast 491 565 33,000  Level FlightAware
01:29AM 9.8820 -76.4850 136° Southeast 491 565 33,000  Level FlightAware
01:29AM 9.8230 -76.4250 135° Southeast 484 557 33,000  Level FlightAware
01:30AM 9.7540 -76.3570 136° Southeast 491 565 33,000  Level FlightAware
01:31AM 9.6970 -76.3010 136° Southeast 493 567 33,000  Level FlightAware
01:31AM 9.6380 -76.2440 136° Southeast 493 567 33,000  Level FlightAware
01:32AM 9.5800 -76.1880 136° Southeast 494 568 33,000  Level FlightAware
01:32AM 9.5250 -76.1350 136° Southeast 494 568 33,000  Level FlightAware
01:33AM 9.4610 -76.0730 136° Southeast 495 570 33,000  Level FlightAware
01:34AM 9.4070 -76.0210 136° Southeast 494 568 33,000  Level FlightAware
01:34AM 9.3480 -75.9630 136° Southeast 494 568 33,000  Level FlightAware
01:35AM 9.2880 -75.9060 137° Southeast 494 568 33,000  Level FlightAware
01:35AM 9.2220 -75.8420 136° Southeast 496 571 33,000  Level FlightAware
01:36AM 9.1590 -75.7840 138° Southeast 498 573 33,000  Level FlightAware
01:37AM 9.0950 -75.7320 141° Southeast 499 574 33,000  Level FlightAware
01:37AM 9.0360 -75.6830 141° Southeast 499 574 33,000  Level FlightAware
01:38AM 8.9810 -75.6380 141° Southeast 499 574 33,000  Level FlightAware
01:38AM 8.9260 -75.5930 141° Southeast 499 574 33,000  Level FlightAware
01:39AM 8.8030 -75.5200 150° Southeast 499 574 33,000  Level FlightAware
01:40AM 8.7050 -75.4780 157° South 503 579 33,000  Level FlightAware
01:41AM 8.6350 -75.4400 152° Southeast 504 580 33,000  Level FlightAware
01:41AM 8.5590 -75.3990 152° Southeast 502 578 33,000  Level FlightAware
01:42AM 8.4840 -75.3590 152° Southeast 502 578 33,000  Level FlightAware
01:42AM 8.4170 -75.3220 151° Southeast 501 577 33,000  Level FlightAware
01:43AM 8.3240 -75.2720 152° Southeast 499 574 33,000  Level FlightAware
01:44AM 8.2430 -75.2280 152° Southeast 499 574 33,000  Level FlightAware
01:44AM 8.1770 -75.1920 152° Southeast 498 573 33,000  Level FlightAware
01:45AM 8.0990 -75.1510 153° Southeast 497 572 33,000  Level FlightAware
01:45AM 8.0310 -75.1140 152° Southeast 496 571 33,000  Level FlightAware
01:46AM 7.9570 -75.0760 153° Southeast 494 568 33,000  Level FlightAware
01:47AM 7.8920 -75.0560 163° South 497 572 33,000  Level FlightAware
01:47AM 7.8200 -75.0420 169° South 498 573 33,000  Level FlightAware
01:48AM 7.7320 -75.0250 169° South 497 572 33,000  Level FlightAware
01:48AM 7.6420 -75.0100 171° South 498 573 33,000  Level FlightAware
01:49AM 7.5610 -74.9970 171° South 499 574 33,000  Level FlightAware
01:50AM 7.4820 -74.9850 171° South 499 574 33,000  Level FlightAware
01:50AM 7.4020 -74.9720 171° South 499 574 33,000  Level FlightAware
01:51AM 7.3210 -74.9620 173° South 499 574 33,000  Level FlightAware
01:51AM 7.2280 -74.9500 173° South 499 574 33,000  Level FlightAware
01:52AM 7.1600 -74.9420 173° South 499 574 33,000  Level FlightAware
01:52AM 7.0790 -74.9320 173° South 498 573 33,000  Level FlightAware
01:53AM 6.9880 -74.9170 171° South 497 572 33,000  Level FlightAware
01:54AM 6.9220 -74.8980 164° South 498 573 33,000  Level FlightAware
01:54AM 6.8400 -74.8650 158° South 497 572 33,000  Level FlightAware
01:55AM 6.8010 -74.8160 129° Southeast 487 560 33,000  Level FlightAware
01:55AM 6.7610 -74.7600 126° Southeast 486 559 33,000  Level FlightAware
01:56AM 6.7210 -74.7040 126° Southeast 486 559 33,000  Level FlightAware
01:57AM 6.6790 -74.6470 127° Southeast 486 559 33,000  Level FlightAware
01:57AM 6.6390 -74.5910 126° Southeast 486 559 33,000  Level FlightAware
01:58AM 6.5980 -74.5350 126° Southeast 486 559 33,000 1,680 Level FlightAware
01:58AM 6.5270 -74.4150 121° Southeast 475 547 35,000 1,800 Climbing FlightAware
01:59AM 6.4850 -74.3560 126° Southeast 476 548 35,000  Level FlightAware
02:00AM 6.4380 -74.2830 123° Southeast 475 547 35,000  Level FlightAware
02:00AM 6.4100 -74.2150 113° Southeast 469 540 35,000  Level FlightAware
02:01AM 6.3980 -74.1400 99° East 468 539 35,000  Level FlightAware
02:01AM 6.3860 -74.0590 98° East 468 539 35,000  Level FlightAware
02:02AM 6.3760 -73.9890 98° East 469 540 35,000  Level FlightAware
02:02AM 6.3660 -73.9120 97° East 469 540 35,000  Level FlightAware
02:03AM 6.3540 -73.8350 99° East 471 542 35,000  Level FlightAware
02:04AM 6.3310 -73.7580 107° East 474 545 35,000  Level FlightAware
02:04AM 6.3120 -73.7190 116° Southeast 478 550 35,000  Level FlightAware
02:04AM 6.2820 -73.6850 132° Southeast 485 558 35,000  Level FlightAware
02:05AM 6.2380 -73.6520 143° Southeast 490 564 35,000  Level FlightAware
02:05AM 6.1770 -73.6120 147° Southeast 495 570 35,000  Level FlightAware
02:06AM 6.1090 -73.5680 147° Southeast 497 572 35,000  Level FlightAware
02:06AM 6.0390 -73.5220 147° Southeast 497 572 35,000  Level FlightAware
02:07AM 5.9730 -73.4790 147° Southeast 497 572 35,000  Level FlightAware
02:08AM 5.9080 -73.4360 147° Southeast 497 572 35,000  Level FlightAware
02:08AM 5.8410 -73.3920 147° Southeast 495 570 35,000  Level FlightAware
02:09AM 5.7730 -73.3470 147° Southeast 494 568 35,000  Level FlightAware
02:09AM 5.7010 -73.2990 146° Southeast 495 570 35,000  Level FlightAware
02:10AM 5.6380 -73.2580 147° Southeast 495 570 35,000  Level FlightAware
02:10AM 5.5690 -73.2130 147° Southeast 495 570 35,000  Level FlightAware
02:11AM 5.5080 -73.1720 146° Southeast 495 570 35,000  Level FlightAware
02:12AM 5.4460 -73.1310 147° Southeast 496 571 35,000  Level FlightAware
02:12AM 5.3770 -73.0860 147° Southeast 498 573 35,000  Level FlightAware
02:13AM 5.3080 -73.0410 147° Southeast 498 573 35,000  Level FlightAware
02:13AM 5.2410 -72.9970 147° Southeast 496 571 35,000  Level FlightAware
02:14AM 5.1720 -72.9520 147° Southeast 494 568 35,000  Level FlightAware
02:15AM 5.1030 -72.9060 146° Southeast 494 568 35,000  Level FlightAware
02:15AM 5.0420 -72.8660 147° Southeast 493 567 35,000  Level FlightAware
02:16AM 4.9790 -72.8240 146° Southeast 493 567 35,000  Level FlightAware
02:16AM 4.9220 -72.7840 145° Southeast 493 567 35,000  Level FlightAware
02:17AM 4.8640 -72.7450 146° Southeast 493 567 35,000  Level FlightAware
02:18AM 4.8060 -72.7060 146° Southeast 493 567 35,000  Level FlightAware
02:18AM 4.7480 -72.6670 146° Southeast 493 567 35,000  Level FlightAware
02:19AM 4.6900 -72.6280 146° Southeast 493 567 35,000  Level FlightAware
02:19AM 4.6320 -72.5890 146° Southeast 493 567 35,000  Level FlightAware
02:20AM 4.5740 -72.5490 145° Southeast 493 567 35,000  Level FlightAware
02:21AM 4.5170 -72.5100 146° Southeast 493 567 35,000  Level FlightAware
02:21AM 4.4590 -72.4710 146° Southeast 493 567 35,000  Level FlightAware
02:22AM 4.4010 -72.4320 146° Southeast 493 567 35,000  Level FlightAware
02:22AM 4.3410 -72.3920 146° Southeast 493 567 35,000  Level FlightAware
02:23AM 4.2830 -72.3530 146° Southeast 493 567 35,000  Level FlightAware
02:24AM 4.2260 -72.3130 145° Southeast 493 567 35,000  Level FlightAware
02:24AM 4.1680 -72.2740 146° Southeast 493 567 35,000  Level FlightAware
02:25AM 4.1080 -72.2340 146° Southeast 493 567 35,000  Level FlightAware
02:27AM 3.9069 -72.1147 145° Southeast  Level FlightAware Approximate
02:28AM 3.7980 -72.0379 145° Southeast  Level FlightAware Approximate
02:29AM 3.6891 -71.9612 145° Southeast  Level FlightAware Approximate
02:30AM 3.5802 -71.8845 145° Southeast  Level FlightAware Approximate
02:31AM 3.4713 -71.8079 145° Southeast  Level FlightAware Approximate
02:32AM 3.3624 -71.7312 145° Southeast  Level FlightAware Approximate
02:33AM 3.2535 -71.6545 145° Southeast  Level FlightAware Approximate
02:34AM 3.1446 -71.5779 145° Southeast  Level FlightAware Approximate
02:35AM 3.0357 -71.5013 145° Southeast  Level FlightAware Approximate
02:36AM 2.9268 -71.4247 145° Southeast  Level FlightAware Approximate
02:37AM 2.8178 -71.3481 145° Southeast  Level FlightAware Approximate
02:38AM 2.7089 -71.2716 145° Southeast  Level FlightAware Approximate
02:39AM 2.6000 -71.1950 145° Southeast  Level FlightAware Approximate
02:40AM 2.4911 -71.1184 145° Southeast  Level FlightAware Approximate
02:41AM 2.3823 -71.0417 145° Southeast  Level FlightAware Approximate
02:42AM 2.2734 -70.9650 145° Southeast  Level FlightAware Approximate
02:43AM 2.1645 -70.8884 145° Southeast  Level FlightAware Approximate
02:44AM 2.0557 -70.8118 145° Southeast  Level FlightAware Approximate
02:45AM 1.9468 -70.7352 145° Southeast  Level FlightAware Approximate
02:46AM 1.8379 -70.6585 145° Southeast  Level FlightAware Approximate
02:47AM 1.7291 -70.5819 145° Southeast  Level FlightAware Approximate
02:48AM 1.6202 -70.5054 145° Southeast  Level FlightAware Approximate
02:49AM 1.5113 -70.4288 145° Southeast  Level FlightAware Approximate
02:50AM 1.4024 -70.3522 145° Southeast  Level FlightAware Approximate
02:51AM 1.2935 -70.2757 145° Southeast  Level FlightAware Approximate
02:52AM 1.1889 -70.1937 138° Southeast  Level FlightAware Approximate
02:53AM 1.0895 -70.1052 138° Southeast  Level FlightAware Approximate
02:54AM 0.9901 -70.0167 138° Southeast  Level FlightAware Approximate
02:55AM 0.8907 -69.9282 138° Southeast  Level FlightAware Approximate
02:56AM 0.7912 -69.8397 138° Southeast  Level FlightAware Approximate
02:57AM 0.6918 -69.7512 138° Southeast  Level FlightAware Approximate
02:58AM 0.5924 -69.6627 138° Southeast  Level FlightAware Approximate
02:59AM 0.4930 -69.5742 138° Southeast  Level FlightAware Approximate
03:00AM 0.3936 -69.4857 138° Southeast  Level FlightAware Approximate
03:01AM 0.2942 -69.3972 138° Southeast  Level FlightAware Approximate
03:02AM 0.1947 -69.3087 138° Southeast  Level FlightAware Approximate
03:03AM 0.0953 -69.2202 138° Southeast  Level FlightAware Approximate
03:04AM -0.0041 -69.1317 138° Southeast  Level FlightAware Approximate
03:05AM -0.1035 -69.0432 138° Southeast  Level FlightAware Approximate
03:06AM -0.2029 -68.9547 138° Southeast  Level FlightAware Approximate
03:07AM -0.3024 -68.8662 138° Southeast  Level FlightAware Approximate
03:08AM -0.4018 -68.7778 138° Southeast  Level FlightAware Approximate
03:09AM -0.5012 -68.6893 138° Southeast  Level FlightAware Approximate
03:10AM -0.6006 -68.6008 138° Southeast  Level FlightAware Approximate
03:11AM -0.7000 -68.5123 138° Southeast  Level FlightAware Approximate
03:12AM -0.7994 -68.4238 138° Southeast  Level FlightAware Approximate
03:13AM -0.8989 -68.3352 138° Southeast  Level FlightAware Approximate
03:14AM -0.9983 -68.2467 138° Southeast  Level FlightAware Approximate
03:15AM -1.0977 -68.1582 138° Southeast  Level FlightAware Approximate
03:16AM -1.1971 -68.0697 138° Southeast  Level FlightAware Approximate
03:17AM -1.2965 -67.9811 138° Southeast  Level FlightAware Approximate
03:18AM -1.3959 -67.8926 138° Southeast  Level FlightAware Approximate
03:19AM -1.4953 -67.8041 138° Southeast  Level FlightAware Approximate
03:20AM -1.5947 -67.7155 138° Southeast  Level FlightAware Approximate
03:21AM -1.6941 -67.6270 138° Southeast  Level FlightAware Approximate
03:22AM -1.7934 -67.5384 138° Southeast  Level FlightAware Approximate
03:23AM -1.8928 -67.4498 138° Southeast  Level FlightAware Approximate
03:24AM -1.9922 -67.3612 138° Southeast  Level FlightAware Approximate
03:25AM -2.0916 -67.2726 138° Southeast  Level FlightAware Approximate
03:26AM -2.1909 -67.1840 138° Southeast  Level FlightAware Approximate
03:27AM -2.2903 -67.0954 138° Southeast  Level FlightAware Approximate
03:28AM -2.3897 -67.0067 138° Southeast  Level FlightAware Approximate
03:29AM -2.4890 -66.9181 138° Southeast  Level FlightAware Approximate
03:30AM -2.5884 -66.8294 138° Southeast  Level FlightAware Approximate
03:31AM -2.6877 -66.7407 138° Southeast  Level FlightAware Approximate
03:32AM -2.7870 -66.6520 138° Southeast  Level FlightAware Approximate
03:33AM -2.8863 -66.5633 138° Southeast  Level FlightAware Approximate
03:34AM -2.9857 -66.4746 138° Southeast  Level FlightAware Approximate
03:35AM -3.0850 -66.3859 138° Southeast  Level FlightAware Approximate
03:36AM -3.1843 -66.2971 138° Southeast  Level FlightAware Approximate
03:37AM -3.2836 -66.2084 138° Southeast  Level FlightAware Approximate
03:38AM -3.3829 -66.1196 138° Southeast  Level FlightAware Approximate
03:39AM -3.4822 -66.0307 138° Southeast  Level FlightAware Approximate
03:40AM -3.5814 -65.9419 138° Southeast  Level FlightAware Approximate
03:41AM -3.6807 -65.8531 138° Southeast  Level FlightAware Approximate
03:42AM -3.7799 -65.7642 138° Southeast  Level FlightAware Approximate
03:43AM -3.8792 -65.6753 138° Southeast  Level FlightAware Approximate
03:44AM -3.9784 -65.5864 138° Southeast  Level FlightAware Approximate
03:45AM -4.0776 -65.4975 138° Southeast  Level FlightAware Approximate
03:46AM -4.1769 -65.4085 138° Southeast  Level FlightAware Approximate
03:47AM -4.2761 -65.3195 138° Southeast  Level FlightAware Approximate
03:48AM -4.3753 -65.2306 138° Southeast  Level FlightAware Approximate
03:49AM -4.4745 -65.1415 138° Southeast  Level FlightAware Approximate
03:50AM -4.5736 -65.0525 138° Southeast  Level FlightAware Approximate
03:51AM -4.6728 -64.9634 138° Southeast  Level FlightAware Approximate
03:52AM -4.7719 -64.8743 138° Southeast  Level FlightAware Approximate
03:53AM -4.8711 -64.7852 138° Southeast  Level FlightAware Approximate
03:54AM -4.9702 -64.6961 138° Southeast  Level FlightAware Approximate
03:55AM -5.0695 -64.6067 138° Southeast  Level FlightAware Approximate
03:56AM -5.1688 -64.5174 138° Southeast  Level FlightAware Approximate
03:57AM -5.2680 -64.4280 138° Southeast  Level FlightAware Approximate
03:58AM -5.3673 -64.3386 138° Southeast  Level FlightAware Approximate
03:59AM -5.4665 -64.2491 138° Southeast  Level FlightAware Approximate
04:00AM -5.5658 -64.1597 138° Southeast  Level FlightAware Approximate
04:01AM -5.6650 -64.0702 138° Southeast  Level FlightAware Approximate
04:02AM -5.7642 -63.9806 138° Southeast  Level FlightAware Approximate
04:03AM -5.8634 -63.8910 138° Southeast  Level FlightAware Approximate
04:04AM -5.9624 -63.8016 138° Southeast  Level FlightAware Approximate
04:05AM -6.0614 -63.7121 138° Southeast  Level FlightAware Approximate
04:06AM -6.1603 -63.6226 138° Southeast  Level FlightAware Approximate
04:07AM -6.2593 -63.5331 138° Southeast  Level FlightAware Approximate
04:08AM -6.3582 -63.4435 138° Southeast  Level FlightAware Approximate
04:09AM -6.4571 -63.3539 138° Southeast  Level FlightAware Approximate
04:10AM -6.5560 -63.2643 138° Southeast  Level FlightAware Approximate
04:11AM -6.6549 -63.1746 138° Southeast  Level FlightAware Approximate
04:12AM -6.7538 -63.0849 138° Southeast  Level FlightAware Approximate
04:13AM -6.8527 -62.9951 138° Southeast  Level FlightAware Approximate
04:14AM -6.9515 -62.9053 138° Southeast  Level FlightAware Approximate
04:15AM -7.0504 -62.8155 138° Southeast  Level FlightAware Approximate
04:16AM -7.1492 -62.7257 138° Southeast  Level FlightAware Approximate
04:17AM -7.2480 -62.6358 138° Southeast  Level FlightAware Approximate
04:18AM -7.3467 -62.5458 138° Southeast  Level FlightAware Approximate
04:19AM -7.4455 -62.4558 138° Southeast  Level FlightAware Approximate
04:20AM -7.5442 -62.3658 138° Southeast  Level FlightAware Approximate
04:21AM -7.6429 -62.2758 138° Southeast  Level FlightAware Approximate
04:22AM -7.7416 -62.1857 138° Southeast  Level FlightAware Approximate
04:23AM -7.8403 -62.0955 138° Southeast  Level FlightAware Approximate
04:24AM -7.9390 -62.0053 138° Southeast  Level FlightAware Approximate
04:25AM -8.0376 -61.9151 138° Southeast  Level FlightAware Approximate
04:26AM -8.1364 -61.8246 138° Southeast  Level FlightAware Approximate
04:27AM -8.2352 -61.7342 138° Southeast  Level FlightAware Approximate
04:28AM -8.3340 -61.6436 138° Southeast  Level FlightAware Approximate
04:29AM -8.4327 -61.5531 138° Southeast  Level FlightAware Approximate
04:30AM -8.5314 -61.4624 138° Southeast  Level FlightAware Approximate
04:31AM -8.6301 -61.3718 138° Southeast  Level FlightAware Approximate
04:32AM -8.7288 -61.2811 138° Southeast  Level FlightAware Approximate
04:33AM -8.8274 -61.1903 138° Southeast  Level FlightAware Approximate
04:34AM -8.9261 -61.0995 138° Southeast  Level FlightAware Approximate
04:35AM -9.0247 -61.0086 138° Southeast  Level FlightAware Approximate
04:36AM -9.1233 -60.9177 138° Southeast  Level FlightAware Approximate
04:37AM -9.2218 -60.8268 138° Southeast  Level FlightAware Approximate
04:38AM -9.3204 -60.7358 138° Southeast  Level FlightAware Approximate
04:39AM -9.4189 -60.6447 138° Southeast  Level FlightAware Approximate
04:40AM -9.5174 -60.5536 138° Southeast  Level FlightAware Approximate
04:41AM -9.6159 -60.4624 138° Southeast  Level FlightAware Approximate
04:42AM -9.7143 -60.3712 138° Southeast  Level FlightAware Approximate
04:43AM -9.8127 -60.2799 138° Southeast  Level FlightAware Approximate
04:44AM -9.9111 -60.1886 138° Southeast  Level FlightAware Approximate
04:45AM -10.0095 -60.0972 138° Southeast  Level FlightAware Approximate
04:46AM -10.1078 -60.0058 138° Southeast  Level FlightAware Approximate
04:47AM -10.2062 -59.9143 138° Southeast  Level FlightAware Approximate
04:48AM -10.3045 -59.8227 138° Southeast  Level FlightAware Approximate
04:49AM -10.4027 -59.7311 137° Southeast  Level FlightAware Approximate
04:50AM -10.5010 -59.6395 137° Southeast  Level FlightAware Approximate
04:51AM -10.5992 -59.5477 137° Southeast  Level FlightAware Approximate
04:52AM -10.6974 -59.4560 137° Southeast  Level FlightAware Approximate
04:53AM -10.7956 -59.3641 137° Southeast  Level FlightAware Approximate
04:54AM -10.8937 -59.2722 137° Southeast  Level FlightAware Approximate
04:55AM -10.9918 -59.1803 137° Southeast  Level FlightAware Approximate
04:56AM -11.0899 -59.0882 137° Southeast  Level FlightAware Approximate
04:57AM -11.1880 -58.9962 137° Southeast  Level FlightAware Approximate
04:58AM -11.2860 -58.9040 137° Southeast  Level FlightAware Approximate
04:59AM -11.3840 -58.8118 137° Southeast  Level FlightAware Approximate
05:00AM -11.4819 -58.7195 137° Southeast  Level FlightAware Approximate
05:01AM -11.5799 -58.6272 137° Southeast  Level FlightAware Approximate
05:02AM -11.6778 -58.5348 137° Southeast  Level FlightAware Approximate
05:03AM -11.7757 -58.4423 137° Southeast  Level FlightAware Approximate
05:04AM -11.8735 -58.3498 137° Southeast  Level FlightAware Approximate
05:05AM -11.9713 -58.2572 137° Southeast  Level FlightAware Approximate
05:06AM -12.0691 -58.1645 137° Southeast  Level FlightAware Approximate
05:07AM -12.1669 -58.0718 137° Southeast  Level FlightAware Approximate
05:08AM -12.2646 -57.9790 137° Southeast  Level FlightAware Approximate
05:09AM -12.3623 -57.8861 137° Southeast  Level FlightAware Approximate
05:10AM -12.4600 -57.7932 137° Southeast  Level FlightAware Approximate
05:11AM -12.5576 -57.7002 137° Southeast  Level FlightAware Approximate
05:12AM -12.6552 -57.6071 137° Southeast  Level FlightAware Approximate
05:13AM -12.7528 -57.5140 137° Southeast  Level FlightAware Approximate
05:14AM -12.8504 -57.4207 137° Southeast  Level FlightAware Approximate
05:15AM -12.9479 -57.3274 137° Southeast  Level FlightAware Approximate
05:16AM -13.0453 -57.2341 137° Southeast  Level FlightAware Approximate
05:17AM -13.1428 -57.1406 137° Southeast  Level FlightAware Approximate
05:18AM -13.2402 -57.0471 137° Southeast  Level FlightAware Approximate
05:19AM -13.3376 -56.9535 137° Southeast  Level FlightAware Approximate
05:20AM -13.4349 -56.8598 137° Southeast  Level FlightAware Approximate
05:21AM -13.5322 -56.7661 137° Southeast  Level FlightAware Approximate
05:22AM -13.6295 -56.6723 137° Southeast  Level FlightAware Approximate
05:23AM -13.7267 -56.5784 137° Southeast  Level FlightAware Approximate
05:24AM -13.8239 -56.4844 137° Southeast  Level FlightAware Approximate
05:25AM -13.9211 -56.3904 137° Southeast  Level FlightAware Approximate
05:26AM -14.0182 -56.2962 137° Southeast  Level FlightAware Approximate
05:27AM -14.1153 -56.2020 137° Southeast  Level FlightAware Approximate
05:28AM -14.2123 -56.1077 137° Southeast  Level FlightAware Approximate
05:29AM -14.3093 -56.0134 137° Southeast  Level FlightAware Approximate
05:30AM -14.4063 -55.9189 137° Southeast  Level FlightAware Approximate
05:31AM -14.5033 -55.8243 137° Southeast  Level FlightAware Approximate
05:32AM -14.6002 -55.7297 137° Southeast  Level FlightAware Approximate
05:33AM -14.6970 -55.6350 137° Southeast  Level FlightAware Approximate
05:34AM -14.7938 -55.5402 137° Southeast  Level FlightAware Approximate
05:35AM -14.8906 -55.4454 137° Southeast  Level FlightAware Approximate
05:36AM -14.9874 -55.3504 137° Southeast  Level FlightAware Approximate
05:37AM -15.0841 -55.2554 137° Southeast  Level FlightAware Approximate
05:38AM -15.1808 -55.1602 136° Southeast  Level FlightAware Approximate
05:39AM -15.2774 -55.0650 136° Southeast  Level FlightAware Approximate
05:40AM -15.3740 -54.9697 136° Southeast  Level FlightAware Approximate
05:41AM -15.4705 -54.8743 136° Southeast  Level FlightAware Approximate
05:42AM -15.5670 -54.7788 136° Southeast  Level FlightAware Approximate
05:43AM -15.6635 -54.6833 136° Southeast  Level FlightAware Approximate
05:44AM -15.7599 -54.5876 136° Southeast  Level FlightAware Approximate
05:45AM -15.8563 -54.4919 136° Southeast  Level FlightAware Approximate
05:46AM -15.9527 -54.3960 136° Southeast  Level FlightAware Approximate
05:47AM -16.0490 -54.3001 136° Southeast  Level FlightAware Approximate
05:48AM -16.1452 -54.2040 136° Southeast  Level FlightAware Approximate
05:49AM -16.2414 -54.1079 136° Southeast  Level FlightAware Approximate
05:50AM -16.3376 -54.0117 136° Southeast  Level FlightAware Approximate
05:51AM -16.4337 -53.9154 136° Southeast  Level FlightAware Approximate
05:52AM -16.5298 -53.8190 136° Southeast  Level FlightAware Approximate
05:53AM -16.6259 -53.7225 136° Southeast  Level FlightAware Approximate
05:54AM -16.7218 -53.6259 136° Southeast  Level FlightAware Approximate
05:55AM -16.8178 -53.5292 136° Southeast  Level FlightAware Approximate
05:56AM -16.9137 -53.4324 136° Southeast  Level FlightAware Approximate
05:57AM -17.0096 -53.3355 136° Southeast  Level FlightAware Approximate
05:58AM -17.1054 -53.2385 136° Southeast  Level FlightAware Approximate
05:59AM -17.2011 -53.1414 136° Southeast  Level FlightAware Approximate
06:00AM -17.2969 -53.0442 136° Southeast  Level FlightAware Approximate
06:01AM -17.3925 -52.9469 136° Southeast  Level FlightAware Approximate
06:02AM -17.4881 -52.8495 136° Southeast  Level FlightAware Approximate
06:03AM -17.5837 -52.7520 136° Southeast  Level FlightAware Approximate
06:04AM -17.6794 -52.6542 136° Southeast  Level FlightAware Approximate
06:05AM -17.7751 -52.5564 136° Southeast  Level FlightAware Approximate
06:06AM -17.8707 -52.4584 136° Southeast  Level FlightAware Approximate
06:07AM -17.9662 -52.3603 136° Southeast  Level FlightAware Approximate
06:08AM -18.0617 -52.2621 136° Southeast  Level FlightAware Approximate
06:08AM -18.9340 -50.7430 136° Southeast 538 619 37,000  Level FlightAware
06:08AM -18.9980 -50.6710 133° Southeast 538 619 37,000  Level FlightAware
06:09AM -18.1572 -52.1638 136° Southeast  Level FlightAware Approximate
06:09AM -19.0700 -50.5940 135° Southeast 540 621 37,000  Level FlightAware
06:10AM -19.1280 -50.5310 134° Southeast 541 623 37,000  Level FlightAware
06:10AM -19.1900 -50.4630 134° Southeast 541 623 37,000  Level FlightAware
06:11AM -19.2520 -50.3950 134° Southeast 541 623 37,000  Level FlightAware
06:12AM -19.3230 -50.3170 134° Southeast 538 619 37,000  Level FlightAware
06:12AM -19.3880 -50.2460 134° Southeast 538 619 37,000  Level FlightAware
06:13AM -19.4500 -50.1780 134° Southeast 538 619 37,000  Level FlightAware
06:13AM -19.5040 -50.1180 134° Southeast 538 619 37,000  Level FlightAware
06:14AM -19.5670 -50.0490 134° Southeast 537 618 37,000  Level FlightAware
06:14AM -19.6300 -49.9790 134° Southeast 537 618 37,000  Level FlightAware
06:15AM -19.6830 -49.9220 135° Southeast 538 619 37,000  Level FlightAware
06:16AM -19.7450 -49.8540 134° Southeast 538 619 37,000  Level FlightAware
06:16AM -19.8020 -49.7910 134° Southeast 538 619 37,000  Level FlightAware
06:17AM -19.8720 -49.7150 134° Southeast 538 619 37,000  Level FlightAware
06:17AM -19.9260 -49.6570 135° Southeast 537 618 37,000  Level FlightAware
06:18AM -19.9930 -49.5830 134° Southeast 539 620 37,000  Level FlightAware
06:19AM -20.0560 -49.5140 134° Southeast 540 621 37,000  Level FlightAware
06:19AM -20.1180 -49.4450 134° Southeast 539 620 37,000  Level FlightAware
06:20AM -20.1740 -49.3830 134° Southeast 538 619 37,000  Level FlightAware
06:20AM -20.2350 -49.3160 134° Southeast 539 620 37,000  Level FlightAware
06:21AM -20.2950 -49.2500 134° Southeast 541 623 37,000  Level FlightAware
06:21AM -20.3500 -49.1900 134° Southeast 542 624 37,000  Level FlightAware
06:22AM -20.4190 -49.1190 136° Southeast 541 623 37,000  Level FlightAware
06:23AM -20.4860 -49.0520 137° Southeast 540 621 37,000  Level FlightAware
06:23AM -20.5520 -48.9880 138° Southeast 539 620 37,000  Level FlightAware
06:24AM -20.6130 -48.9300 138° Southeast 538 619 37,000  Level FlightAware
06:24AM -20.6780 -48.8680 138° Southeast 537 618 37,000  Level FlightAware
06:25AM -20.7440 -48.8040 138° Southeast 537 618 37,000  Level FlightAware
06:26AM -20.8070 -48.7440 138° Southeast 538 619 37,000  Level FlightAware
06:26AM -20.8740 -48.6800 138° Southeast 538 619 37,000  Level FlightAware
06:27AM -20.9410 -48.6150 138° Southeast 540 621 37,000  Level FlightAware
06:27AM -21.0070 -48.5510 138° Southeast 540 621 37,000  Level FlightAware
06:28AM -21.0720 -48.4890 138° Southeast 541 623 37,000  Level FlightAware
06:28AM -21.1260 -48.4360 138° Southeast 542 624 37,000  Level FlightAware
06:29AM -21.2090 -48.3550 138° Southeast 544 626 37,000  Level FlightAware
06:30AM -21.2790 -48.2870 138° Southeast 542 624 37,000  Level FlightAware
06:30AM -21.3430 -48.2240 137° Southeast 544 626 37,000  Level FlightAware
06:31AM -21.4090 -48.1600 138° Southeast 542 624 37,000  Level FlightAware
06:31AM -21.4660 -48.1050 138° Southeast 543 625 37,000  Level FlightAware
06:32AM -21.5370 -48.0350 137° Southeast 544 626 37,000  Level FlightAware
06:33AM -21.5990 -47.9740 138° Southeast 545 627 37,000 -360 Level FlightAware
06:33AM -21.6690 -47.9050 138° Southeast 544 626 36,600 -1,020 Descending FlightAware
06:34AM -21.7260 -47.8500 138° Southeast 545 627 35,900 -1,080 Descending FlightAware
06:34AM -21.7970 -47.7800 138° Southeast 537 618 35,400 -1,200 Descending FlightAware
06:35AM -21.8540 -47.7230 137° Southeast 527 606 34,600 -2,040 Descending FlightAware
06:36AM -21.9190 -47.6600 138° Southeast 524 603 33,100 -2,340 Descending FlightAware
06:36AM -21.9880 -47.5910 137° Southeast 515 593 31,700 -2,280 Descending FlightAware
06:37AM -22.0460 -47.5340 138° Southeast 507 583 30,400 -2,400 Descending FlightAware
06:37AM -22.1050 -47.4760 138° Southeast 501 577 29,000 -2,220 Descending FlightAware
06:38AM -22.1650 -47.4170 138° Southeast 490 564 27,900 -1,920 Descending FlightAware
06:38AM -22.2190 -47.3630 137° Southeast 478 550 26,800 -1,920 Descending FlightAware
06:39AM -22.2720 -47.3100 137° Southeast 467 537 25,800 -1,860 Descending FlightAware
06:40AM -22.3350 -47.2480 138° Southeast 452 520 24,600 -1,860 Descending FlightAware
06:40AM -22.3900 -47.1930 137° Southeast 439 505 23,500 -1,800 Descending FlightAware
06:41AM -22.4410 -47.1420 137° Southeast 426 490 22,500 -1,740 Descending FlightAware
06:41AM -22.4850 -47.0990 138° Southeast 414 476 21,600 -1,740 Descending FlightAware
06:42AM -22.5300 -47.0540 137° Southeast 396 456 20,700 -1,440 Descending FlightAware
06:42AM -22.5820 -47.0110 143° Southeast 402 463 20,000 -1,440 Descending FlightAware
06:43AM -22.6380 -46.9780 151° Southeast 399 459 19,000 -1,800 Descending FlightAware
06:44AM -22.6950 -46.9450 152° Southeast 386 444 17,900 -2,040 Descending FlightAware
06:44AM -22.7560 -46.9100 152° Southeast 364 419 16,500 -2,100 Descending FlightAware
06:45AM -22.8100 -46.8800 153° Southeast 366 421 15,300 -1,860 Descending FlightAware
06:45AM -22.8550 -46.8540 152° Southeast 360 414 14,500 -1,680 Descending FlightAware
06:46AM -22.9130 -46.8220 153° Southeast 346 398 13,400 -1,620 Descending FlightAware
06:47AM -22.9650 -46.7930 153° Southeast 342 394 12,500 -1,680 Descending FlightAware
06:47AM -23.0150 -46.7650 153° Southeast 346 398 11,500 -1,620 Descending FlightAware
06:48AM -23.0650 -46.7370 153° Southeast 340 391 10,700 -960 Descending FlightAware
06:48AM -23.1110 -46.7110 153° Southeast 310 357 10,400 -480 Descending FlightAware
06:49AM -23.1490 -46.6890 152° Southeast 294 338 10,200 -480 Descending FlightAware
06:49AM -23.1670 -46.6680 133° Southeast 291 335 10,000 -660 Descending FlightAware
06:49AM -23.1730 -46.6540 115° Southeast 291 335 9,900 -900 Descending FlightAware
06:50AM -23.1810 -46.6330 113° Southeast 294 338 9,600 -1,200 Descending FlightAware
06:50AM -23.1910 -46.6040 111° Southeast 294 338 9,200 -1,260 Descending FlightAware
06:50AM -23.2020 -46.5710 110° East 290 334 8,700 -1,260 Descending FlightAware
06:51AM -23.2070 -46.5570 111° Southeast 293 337 8,500 -1,200 Descending FlightAware
06:51AM -23.2160 -46.5290 109° East 291 335 8,100 -900 Descending FlightAware
06:51AM -23.2260 -46.5010 111° Southeast 283 326 7,900 -540 Descending FlightAware
06:52AM -23.2370 -46.4690 111° Southeast 270 311 7,700 -660 Descending FlightAware
06:52AM -23.2460 -46.4430 111° Southeast 260 299 7,400 -900 Descending FlightAware
06:52AM -23.2550 -46.4180 111° Southeast 260 299 7,100 -600 Descending FlightAware
06:53AM -23.2630 -46.3940 110° East 249 287 7,000 -360 Descending FlightAware
06:53AM -23.2690 -46.3770 111° Southeast 242 278 6,900 -540 Descending FlightAware
06:53AM -23.2760 -46.3550 109° East 240 276 6,700 -600 Descending FlightAware
06:54AM -23.2840 -46.3310 110° East 239 275 6,500 -600 Descending FlightAware
06:54AM -23.2950 -46.2990 111° Southeast 234 269 6,200 -780 Descending FlightAware
06:54AM -23.3060 -46.2780 120° Southeast 234 269 5,900 -720 Descending FlightAware
06:55AM -23.3100 -46.2740 137° Southeast 225 259 5,900 -840 Level FlightAware
06:55AM -23.3190 -46.2680 149° Southeast 220 253 5,700 -1,200 Descending FlightAware
06:55AM -23.3290 -46.2650 165° South 212 244 5,500 -780 Descending FlightAware
06:55AM -23.3560 -46.2710 192° South 199 229 5,200 -660 Descending FlightAware
06:56AM -23.3770 -46.2830 208° Southwest 189 217 4,900 -600 Descending FlightAware
06:56AM -23.3790 -46.2850 223° Southwest 186 214 4,900  Level FlightAware
06:56AM -23.3830 -46.2890 223° Southwest 178 205 4,900  Level FlightAware
06:56AM -23.3870 -46.2980 244° Southwest 175 201 4,900  Level FlightAware
06:56AM -23.3900 -46.3090 253° West 175 201 4,900 -240 Level FlightAware
06:57AM -23.3950 -46.3260 252° West 173 199 4,800 -600 Descending FlightAware
06:57AM -23.4000 -46.3420 251° West 174 200 4,500 -960 Descending FlightAware
06:57AM -23.4050 -46.3640 256° West 163 188 4,100 -900 Descending FlightAware
06:58AM -23.4090 -46.3790 254° West 149 171 3,800 -720 Descending FlightAware
06:58AM -23.4120 -46.3890 252° West 149 171 3,600 -660 Descending FlightAware
06:59AM -23.4170 -46.4060 252° West 145 167 3,300 -780 Descending FlightAware
06:59AM -23.4220 -46.4240 253° West 148 170 3,000 -720 Descending FlightAware
06:59AM -23.4270 -46.4420 253° West 155 178 2,700 -300 Descending FlightAware
07:00AM -23.4320 -46.4620 255° West 155 178 2,700  Level FlightAware